Airfield :
LOGIN :

Register | Disclaimer

   EN    FR    IT 

 










Legend :    VFR   Marginal VFR   IFR   Intensive IFR   Very Intensive IFR
Visi :
Ceiling :
>= 8 km
>= 3000ft
5 to 8 km
1000 to 3000 ft
1500m to 5 km
500 to 1000 ft
800 to 1500m
200 to 500 ft
< 800m
< 200 ft
Symbols :   Thunderstorms  Fog  Heavy snow  Heavy precipitations  Wind > 20 kt
SIGMETs :     Misc.  Thunderstorms  Icing  Turbulence  Mountain Waves  Volcanic Ashes







- Airport Elevation : 119 ft
- IATA code : WAT


EIWF - Waterford

CURRENT METAR :
  • 251400Z 14012KT 9999 BKN030 19/15 Q1021

EXPIRED METARs :
  • 251330Z 13012KT 100V160 9999 SCT031 19/14 Q1021
  • 251300Z 15012KT CAVOK 19/15 Q1021
  • 251230Z 14012KT 110V170 CAVOK 18/14 Q1021
  • 251200Z 16011KT 120V190 9999 SCT023 19/14 Q1021
  • 251130Z 16009KT 120V200 9999 SCT019 18/14 Q1021

TAF TAF EIWF
Valid from the 25 at 12:00 until the 25 at 21:00 UTC


251100Z 2512/2521 12008KT 9999 FEW020
ATIS : +353 51 877 000
No reported NOTAMs for that airfield.



MET'MAP, your aeronautical weather chart ! - Copyright ORBIFLY December 2007 - Disclaimer

ORBIFLY MET'MAP TEAM :

Programming & Development : Alexandra Zaïnal
Concept & Development : Baudouin d'Aumeries
Co-Development & Prog : Marc-Olivier Méhu
Technical & hardware support : Manuel Goepfert

Contact : metmap@orbifly.com




SOURCES & CREDITS :

   NOAA